This is the latest recevied weather packets stored in our database for station/object TG5ALY-16. If no packets are shown the sender has not sent any weather packets the latest 1 day(s).
| Time | Temp. | Humidity | Pressure | Rain* | Wind** | Luminosity | Snow |
|---|---|---|---|---|---|---|---|
| 1778074763 | 13.33° C | 85% | 1017 hPa | 0 mm | - | - | - |
| 1778072961 | 12.78° C | 86% | 1017 hPa | 0 mm | - | - | - |
| 1778072360 | 12.22° C | 86% | 1018 hPa | 0 mm | - | - | - |
| 1778071159 | 10.56° C | 94% | 1018 hPa | 0 mm | - | - | - |
| 1778070558 | 10° C | 94% | 1018 hPa | 0 mm | - | - | - |
| 1778065753 | 11.11° C | 93% | 1018 hPa | 0 mm | - | - | - |
| 1778064552 | 11.11° C | 93% | 1018 hPa | 0 mm | - | - | - |
| 1778063350 | 11.11° C | 92% | 1018 hPa | 0 mm | - | - | - |
| 1778062750 | 11.11° C | 92% | 1018 hPa | 0 mm | - | - | - |
| 1778060948 | 11.11° C | 91% | 1018 hPa | 0 mm | - | - | - |
| 1778059146 | 11.67° C | 91% | 1018 hPa | 0 mm | - | - | - |
| 1778057344 | 11.67° C | 91% | 1018 hPa | 0 mm | - | - | - |
| 1778056143 | 11.67° C | 89% | 1018 hPa | 0 mm | - | - | - |
| 1778055542 | 12.22° C | 91% | 1018 hPa | 0 mm | - | - | - |
| 1778053738 | 11.67° C | 91% | 1018 hPa | 0 mm | - | - | - |
| 1778053137 | 12.22° C | 90% | 1018 hPa | 0 mm | - | - | - |
| 1778052537 | 12.22° C | 90% | 1018 hPa | 0 mm | - | - | - |
| 1778051936 | 12.78° C | 88% | 1018 hPa | 0 mm | - | - | - |
| 1778051335 | 12.78° C | 88% | 1018 hPa | 0 mm | - | - | - |
| 1778050134 | 12.78° C | 90% | 1018 hPa | 0 mm | - | - | - |
| 1778049533 | 12.78° C | 89% | 1018 hPa | 0 mm | - | - | - |
| 1778048933 | 12.78° C | 89% | 1018 hPa | 0 mm | - | - | - |
| 1778048332 | 12.78° C | 90% | 1018 hPa | 0 mm | - | - | - |
| 1778047731 | 12.78° C | 90% | 1018 hPa | 0 mm | - | - | - |
| 1778047130 | 12.78° C | 90% | 1018 hPa | 0 mm | - | - | - |
* Rain latest hour (hover to see other rain measurements)
** Current wind speed in m/s (hover to see current wind gust speed)